Time;durP1;ratioP1;P1;durP2;ratioP2;P2;SDS_P1;SDS_P2;PMS_P1;PMS_P2;Temp;Humidity;BMP_temperature;BMP_pressure;BME280_temperature;BME280_humidity;BME280_pressure;Samples;Min_cycle;Max_cycle;Signal;HPM_P1;HPM_P2
2022/12/22 06:35:10;;;;;;;12.70;7.55;;;;;;;2.71;100.00;100312.33;1744286;79;21644;-41
2022/12/22 06:37:38;;;;;;;11.90;7.95;;;;;;;2.70;100.00;100315.75;1734874;80;21022;-41
2022/12/22 06:40:07;;;;;;;12.43;7.35;;;;;;;2.69;100.00;100323.04;1748422;80;21033;-41
2022/12/22 06:45:19;;;;;;;16.42;10.72;;;;;;;2.66;100.00;100314.34;1730805;80;21049;-41
2022/12/22 06:47:46;;;;;;;19.12;11.03;;;;;;;2.68;100.00;100326.45;1729213;81;21603;-42
2022/12/22 06:50:13;;;;;;;17.60;10.05;;;;;;;2.66;100.00;100323.38;1758698;78;21686;-50
2022/12/22 06:52:40;;;;;;;23.95;10.35;;;;;;;2.68;100.00;100322.16;1724771;80;21009;-49
2022/12/22 06:55:08;;;;;;;15.53;8.65;;;;;;;2.71;100.00;100326.54;1724920;80;21119;-48
2022/12/22 06:57:35;;;;;;;16.55;8.75;;;;;;;2.73;100.00;100325.78;1702261;80;21033;-40
2022/12/22 07:00:05;;;;;;;12.50;8.15;;;;;;;2.76;100.00;100328.86;1717961;80;21054;-47
2022/12/22 07:02:32;;;;;;;15.48;8.10;;;;;;;2.79;100.00;100328.55;1730291;80;21559;-48
2022/12/22 07:05:01;;;;;;;11.73;7.97;;;;;;;2.82;100.00;100333.80;1720738;80;21097;-40
2022/12/22 07:07:30;;;;;;;16.30;7.70;;;;;;;2.85;100.00;100334.33;1702110;81;21010;-43
2022/12/22 07:09:57;;;;;;;10.60;6.85;;;;;;;2.86;100.00;100343.42;1728361;80;21021;-50
2022/12/22 07:12:24;;;;;;;13.28;7.95;;;;;;;2.89;100.00;100341.33;1730952;80;21557;-40
2022/12/22 07:14:50;;;;;;;17.82;8.60;;;;;;;2.92;100.00;100340.15;1725673;80;21081;-40
2022/12/22 07:17:18;;;;;;;19.52;7.42;;;;;;;2.94;100.00;100340.64;1727177;81;21001;-50
2022/12/22 07:19:45;;;;;;;14.25;7.55;;;;;;;2.97;100.00;100352.80;1726490;80;21456;-49
2022/12/22 07:22:36;;;;;;;17.10;8.20;;;;;;;3.01;100.00;100346.00;1708038;80;21379;-48
2022/12/22 07:28:24;;;;;;;14.68;7.40;;;;;;;3.06;100.00;100347.03;1726490;80;20950;-49
2022/12/22 07:34:12;;;;;;;17.52;9.48;;;;;;;3.08;100.00;100353.14;1718247;81;21041;-48
2022/12/22 07:36:39;;;;;;;16.15;8.33;;;;;;;3.10;100.00;100352.77;1728243;81;20998;-49
2022/12/22 07:39:06;;;;;;;22.48;7.58;;;;;;;3.10;100.00;100349.77;1717241;82;21643;-48
2022/12/22 07:44:35;;;;;;;9.58;6.05;;;;;;;3.13;100.00;100355.43;1721731;81;21077;-40
2022/12/22 07:47:04;;;;;;;12.40;5.72;;;;;;;3.16;100.00;100348.66;1714423;80;21052;-50
2022/12/22 07:52:23;;;;;;;10.82;5.60;;;;;;;3.22;100.00;100340.62;1718371;81;21401;-48
2022/12/22 07:54:50;;;;;;;15.28;6.20;;;;;;;3.25;100.00;100345.48;1725339;81;21033;-48
2022/12/22 07:57:16;;;;;;;17.50;5.72;;;;;;;3.28;100.00;100340.81;1725940;81;21060;-48
2022/12/22 10:16:04;;;;;;;17.67;5.25;;;;;;;4.18;100.00;100245.84;1811666;77;25394;-56
2022/12/22 10:19:32;;;;;;;13.78;4.75;;;;;;;4.18;100.00;100241.95;1770419;79;21378;-51
2022/12/22 10:22:50;;;;;;;9.70;5.15;;;;;;;4.20;100.00;100248.45;1661028;85;21051;-50
2022/12/22 10:25:40;;;;;;;12.70;5.85;;;;;;;4.20;100.00;100243.28;1704780;82;21639;-54
2022/12/22 10:28:37;;;;;;;11.35;4.70;;;;;;;4.21;100.00;100230.78;1701806;83;21375;-43
2022/12/22 10:31:30;;;;;;;15.20;5.58;;;;;;;4.22;100.00;100237.28;1711019;82;21559;-51
2022/12/22 10:34:29;;;;;;;11.78;4.95;;;;;;;4.24;100.00;100234.76;1682694;83;21100;-40
2022/12/22 10:37:12;;;;;;;11.80;4.60;;;;;;;4.25;100.00;100232.19;1673607;83;21499;-41
2022/12/22 10:39:54;;;;;;;13.98;5.03;;;;;;;4.26;100.00;100234.36;1711922;83;21147;-41
2022/12/22 10:42:33;;;;;;;13.13;5.83;;;;;;;4.28;100.00;100239.15;1710167;83;21036;-51
2022/12/22 10:45:09;;;;;;;10.43;5.85;;;;;;;4.29;100.00;100231.86;1710530;83;21152;-41
2022/12/22 10:48:13;;;;;;;17.35;6.92;;;;;;;4.30;100.00;100233.61;1708220;83;21056;-44
2022/12/22 10:50:51;;;;;;;20.88;7.92;;;;;;;4.30;100.00;100215.48;1628481;84;21069;-52
2022/12/22 10:53:54;;;;;;;12.70;4.90;;;;;;;4.32;100.00;100221.98;1711466;83;21309;-47
2022/12/22 10:56:41;;;;;;;8.20;4.72;;;;;;;4.33;100.00;100219.42;1707215;82;21811;-43
2022/12/22 10:59:37;;;;;;;10.90;4.72;;;;;;;4.36;100.00;100207.85;1671026;83;21372;-51
2022/12/22 11:02:31;;;;;;;12.13;5.62;;;;;;;4.37;100.00;100217.79;1673725;83;21066;-43
2022/12/22 11:09:03;;;;;;;17.70;5.95;;;;;;;4.41;100.00;100205.38;1683376;83;21432;-44
2022/12/22 11:11:50;;;;;;;15.20;6.85;;;;;;;4.43;100.00;100203.26;1686634;83;21285;-52
2022/12/22 11:18:53;;;;;;;11.12;4.92;;;;;;;4.48;100.00;100194.30;1600008;88;21089;-43
2022/12/22 11:21:50;;;;;;;12.80;4.80;;;;;;;4.51;100.00;100193.06;1576276;89;21716;-43
2022/12/22 11:24:56;;;;;;;13.70;5.70;;;;;;;4.50;100.00;100193.48;1605181;87;21997;-41
2022/12/22 11:28:13;;;;;;;10.58;5.83;;;;;;;4.52;100.00;100194.42;1546816;92;21002;-42
2022/12/22 11:35:42;;;;;;;17.77;5.72;;;;;;;4.57;100.00;100198.80;1547152;87;21447;-42
2022/12/22 11:38:35;;;;;;;14.83;5.65;;;;;;;4.59;100.00;100188.08;1625606;87;21472;-42
2022/12/22 11:41:50;;;;;;;9.50;5.50;;;;;;;4.62;100.00;100181.64;1569639;90;21076;-43
2022/12/22 11:49:27;;;;;;;10.38;4.87;;;;;;;4.67;100.00;100172.26;1547938;89;21045;-52
2022/12/22 11:52:53;;;;;;;14.83;4.65;;;;;;;4.72;100.00;100173.23;1519073;92;21523;-53
2022/12/22 11:56:36;;;;;;;12.70;5.65;;;;;;;4.75;100.00;100178.47;1530063;92;21325;-51
2022/12/22 12:04:03;;;;;;;7.53;4.67;;;;;;;4.77;100.00;100179.40;1526943;92;21107;-53
2022/12/22 12:11:29;;;;;;;13.45;5.45;;;;;;;4.79;100.00;100183.77;1549627;92;22016;-51
2022/12/22 12:14:21;;;;;;;8.10;3.87;;;;;;;4.79;100.00;100188.08;1550008;88;21202;31
2022/12/22 12:17:18;;;;;;;7.28;3.98;;;;;;;4.79;100.00;100194.55;1475576;95;21665;-52
2022/12/22 12:20:29;;;;;;;11.43;4.28;;;;;;;4.80;100.00;100192.41;1501992;93;21655;-54
2022/12/22 12:23:35;;;;;;;7.37;4.25;;;;;;;4.80;100.00;100191.11;1485963;93;21582;-41
2022/12/22 12:26:29;;;;;;;14.03;4.12;;;;;;;4.78;100.00;100187.20;1519451;93;21095;-42
2022/12/22 12:29:27;;;;;;;;;;;;;;;4.77;100.00;100186.75;1513791;90;21130;-51
2022/12/22 12:32:21;;;;;;;6.60;3.20;;;;;;;4.77;100.00;100183.29;1523872;90;20773;-42
2022/12/22 12:35:11;;;;;;;13.95;4.25;;;;;;;4.76;100.00;100193.20;1534741;90;21150;-42
2022/12/22 12:37:45;;;;;;;8.53;3.22;;;;;;;4.74;100.00;100185.38;1561001;84;21055;-51
2022/12/22 12:40:24;;;;;;;10.20;3.80;;;;;;;4.74;100.00;100189.69;1649659;86;21091;-41
2022/12/22 12:42:59;;;;;;;9.35;3.87;;;;;;;4.73;100.00;100184.92;1669326;84;21399;-51
2022/12/22 12:45:44;;;;;;;7.72;3.20;;;;;;;4.74;100.00;100187.09;1638777;86;21153;-43
2022/12/22 12:48:27;;;;;;;7.47;3.60;;;;;;;4.73;100.00;100188.81;1640163;84;21108;-42
2022/12/22 12:51:00;;;;;;;5.58;2.90;;;;;;;4.74;100.00;100184.50;1639783;86;21054;-43
2022/12/22 12:53:32;;;;;;;8.45;3.22;;;;;;;4.74;100.00;100187.09;1628276;86;21041;-52
2022/12/22 12:56:08;;;;;;;12.58;4.33;;;;;;;4.74;100.00;100189.69;1630951;86;21647;-51
2022/12/22 12:58:51;;;;;;;13.20;4.85;;;;;;;4.74;100.00;100178.89;1644830;86;21519;-42
2022/12/22 13:01:48;;;;;;;11.73;3.75;;;;;;;4.75;100.00;100185.86;1634307;86;21683;-43
2022/12/22 13:04:58;;;;;;;8.30;3.30;;;;;;;4.74;100.00;100176.30;1614776;86;21111;-51
2022/12/22 13:08:19;;;;;;;8.45;3.45;;;;;;;4.74;100.00;100165.06;1633840;86;21105;-41
2022/12/22 13:10:53;;;;;;;7.92;3.15;;;;;;;4.72;100.00;100172.81;1608498;89;21063;-51
2022/12/22 13:13:34;;;;;;;14.40;3.83;;;;;;;4.71;100.00;100172.37;1518997;88;21977;-50
2022/12/22 13:16:08;;;;;;;7.53;5.40;;;;;;;4.70;100.00;100170.62;1583797;89;21511;-42
2022/12/22 13:18:45;;;;;;;9.38;4.10;;;;;;;4.71;100.00;100166.31;1667119;84;20987;-42
2022/12/22 13:21:27;;;;;;;8.30;3.58;;;;;;;4.68;100.00;100165.80;1620839;87;20987;-52
2022/12/22 13:24:04;;;;;;;10.78;4.20;;;;;;;4.67;100.00;100164.48;1629421;86;21074;-51
2022/12/22 13:26:50;;;;;;;8.30;3.85;;;;;;;4.67;100.00;100160.59;1615147;86;21037;-51
2022/12/22 13:29:46;;;;;;;6.55;3.87;;;;;;;4.65;100.00;100161.00;1665263;84;21523;-52
2022/12/22 13:32:37;;;;;;;9.78;4.20;;;;;;;4.64;100.00;100156.63;1645655;86;21628;-51
2022/12/22 13:35:42;;;;;;;17.80;4.80;;;;;;;4.62;100.00;100160.91;1594154;87;21650;-42
2022/12/22 13:39:33;;;;;;;11.80;4.50;;;;;;;4.61;100.00;100155.28;1653208;86;21051;-50
2022/12/22 13:42:11;;;;;;;9.78;3.60;;;;;;;4.60;100.00;100159.59;1674370;84;21024;-52
2022/12/22 13:44:40;;;;;;;10.90;4.22;;;;;;;4.59;100.00;100160.44;1653677;84;21178;-43
2022/12/22 13:47:59;;;;;;;8.58;4.25;;;;;;;4.58;100.00;100167.77;1599865;87;21095;-45
2022/12/22 13:51:13;;;;;;;14.63;5.22;;;;;;;4.58;100.00;100165.17;1611788;87;21199;-52
2022/12/22 13:54:32;;;;;;;6.03;3.22;;;;;;;4.57;100.00;100166.41;1628313;86;21781;-50
